sensor_id;sensor_type;location;lat;lon;timestamp;P1;durP1;ratioP1;P2;durP2;ratioP2
17566;SDS011;8901;52.088;5.084;2023-06-10T00:00:45;24.35;;;22.75;;
17566;SDS011;8901;52.088;5.084;2023-06-10T00:03:12;24.92;;;23.10;;
17566;SDS011;8901;52.088;5.084;2023-06-10T00:05:39;25.98;;;23.15;;
17566;SDS011;8901;52.088;5.084;2023-06-10T00:08:08;24.40;;;22.70;;
17566;SDS011;8901;52.088;5.084;2023-06-10T00:10:36;25.08;;;23.38;;
17566;SDS011;8901;52.088;5.084;2023-06-10T00:13:04;23.60;;;22.17;;
17566;SDS011;8901;52.088;5.084;2023-06-10T00:15:33;23.88;;;22.08;;
17566;SDS011;8901;52.088;5.084;2023-06-10T00:18:01;23.88;;;22.02;;
17566;SDS011;8901;52.088;5.084;2023-06-10T00:20:28;24.23;;;22.63;;
17566;SDS011;8901;52.088;5.084;2023-06-10T00:22:56;22.85;;;21.27;;
17566;SDS011;8901;52.088;5.084;2023-06-10T00:25:25;24.88;;;22.95;;
17566;SDS011;8901;52.088;5.084;2023-06-10T00:27:53;23.83;;;22.23;;
17566;SDS011;8901;52.088;5.084;2023-06-10T00:30:20;22.63;;;21.23;;
17566;SDS011;8901;52.088;5.084;2023-06-10T00:32:47;24.60;;;23.08;;
17566;SDS011;8901;52.088;5.084;2023-06-10T00:35:14;24.20;;;22.60;;
17566;SDS011;8901;52.088;5.084;2023-06-10T00:37:43;25.13;;;23.30;;
17566;SDS011;8901;52.088;5.084;2023-06-10T00:40:11;23.92;;;22.23;;
17566;SDS011;8901;52.088;5.084;2023-06-10T00:42:40;24.33;;;22.73;;
17566;SDS011;8901;52.088;5.084;2023-06-10T00:45:09;23.48;;;21.95;;
17566;SDS011;8901;52.088;5.084;2023-06-10T00:47:37;25.05;;;23.05;;
17566;SDS011;8901;52.088;5.084;2023-06-10T00:50:05;25.25;;;23.30;;
17566;SDS011;8901;52.088;5.084;2023-06-10T00:52:36;24.58;;;22.73;;
17566;SDS011;8901;52.088;5.084;2023-06-10T00:55:04;24.35;;;22.75;;
17566;SDS011;8901;52.088;5.084;2023-06-10T00:57:32;24.25;;;22.65;;
17566;SDS011;8901;52.088;5.084;2023-06-10T01:00:01;24.20;;;22.50;;
17566;SDS011;8901;52.088;5.084;2023-06-10T01:02:32;24.48;;;22.67;;
17566;SDS011;8901;52.088;5.084;2023-06-10T01:04:59;24.77;;;22.85;;
17566;SDS011;8901;52.088;5.084;2023-06-10T01:07:28;23.60;;;21.90;;
17566;SDS011;8901;52.088;5.084;2023-06-10T01:09:59;24.75;;;22.95;;
17566;SDS011;8901;52.088;5.084;2023-06-10T01:12:30;24.83;;;23.17;;
17566;SDS011;8901;52.088;5.084;2023-06-10T01:14:58;24.48;;;22.48;;
17566;SDS011;8901;52.088;5.084;2023-06-10T01:17:28;24.70;;;23.00;;
17566;SDS011;8901;52.088;5.084;2023-06-10T01:19:55;24.92;;;23.23;;
17566;SDS011;8901;52.088;5.084;2023-06-10T01:22:24;23.58;;;21.85;;
17566;SDS011;8901;52.088;5.084;2023-06-10T01:24:53;24.23;;;22.73;;
17566;SDS011;8901;52.088;5.084;2023-06-10T01:27:23;25.35;;;23.40;;
17566;SDS011;8901;52.088;5.084;2023-06-10T01:29:54;23.77;;;22.20;;
17566;SDS011;8901;52.088;5.084;2023-06-10T01:32:29;24.45;;;22.85;;
17566;SDS011;8901;52.088;5.084;2023-06-10T01:34:59;24.20;;;22.60;;
17566;SDS011;8901;52.088;5.084;2023-06-10T01:37:30;25.42;;;23.40;;
17566;SDS011;8901;52.088;5.084;2023-06-10T01:39:59;23.98;;;22.27;;
17566;SDS011;8901;52.088;5.084;2023-06-10T01:42:31;25.00;;;22.67;;
17566;SDS011;8901;52.088;5.084;2023-06-10T01:44:58;24.25;;;22.55;;
17566;SDS011;8901;52.088;5.084;2023-06-10T01:47:26;24.75;;;23.23;;
17566;SDS011;8901;52.088;5.084;2023-06-10T01:49:54;23.83;;;22.00;;
17566;SDS011;8901;52.088;5.084;2023-06-10T01:52:21;23.95;;;22.27;;
17566;SDS011;8901;52.088;5.084;2023-06-10T01:54:50;23.77;;;21.98;;
17566;SDS011;8901;52.088;5.084;2023-06-10T01:57:17;24.50;;;22.70;;
17566;SDS011;8901;52.088;5.084;2023-06-10T01:59:45;23.65;;;22.05;;
17566;SDS011;8901;52.088;5.084;2023-06-10T02:02:12;23.48;;;21.55;;
17566;SDS011;8901;52.088;5.084;2023-06-10T02:04:40;24.92;;;23.17;;
17566;SDS011;8901;52.088;5.084;2023-06-10T02:07:07;23.95;;;22.35;;
17566;SDS011;8901;52.088;5.084;2023-06-10T02:09:34;24.63;;;22.92;;
17566;SDS011;8901;52.088;5.084;2023-06-10T02:12:03;23.58;;;21.88;;
17566;SDS011;8901;52.088;5.084;2023-06-10T02:14:31;23.75;;;22.15;;
17566;SDS011;8901;52.088;5.084;2023-06-10T02:16:59;24.00;;;22.30;;
17566;SDS011;8901;52.088;5.084;2023-06-10T02:19:26;24.40;;;22.63;;
17566;SDS011;8901;52.088;5.084;2023-06-10T02:21:56;24.92;;;23.23;;
17566;SDS011;8901;52.088;5.084;2023-06-10T02:24:31;23.52;;;21.85;;
17566;SDS011;8901;52.088;5.084;2023-06-10T02:26:59;23.77;;;22.17;;
17566;SDS011;8901;52.088;5.084;2023-06-10T02:29:28;24.25;;;22.38;;
17566;SDS011;8901;52.088;5.084;2023-06-10T02:31:56;23.77;;;22.17;;
17566;SDS011;8901;52.088;5.084;2023-06-10T02:34:24;24.13;;;22.33;;
17566;SDS011;8901;52.088;5.084;2023-06-10T02:36:53;23.63;;;21.80;;
17566;SDS011;8901;52.088;5.084;2023-06-10T02:39:23;24.80;;;23.02;;
17566;SDS011;8901;52.088;5.084;2023-06-10T02:41:50;24.95;;;22.92;;
17566;SDS011;8901;52.088;5.084;2023-06-10T02:44:18;24.02;;;22.27;;
17566;SDS011;8901;52.088;5.084;2023-06-10T02:46:47;24.20;;;22.50;;
17566;SDS011;8901;52.088;5.084;2023-06-10T02:49:14;25.00;;;22.95;;
17566;SDS011;8901;52.088;5.084;2023-06-10T02:51:42;24.63;;;22.75;;
17566;SDS011;8901;52.088;5.084;2023-06-10T02:54:10;24.65;;;22.75;;
17566;SDS011;8901;52.088;5.084;2023-06-10T02:59:15;24.48;;;22.58;;
17566;SDS011;8901;52.088;5.084;2023-06-10T03:01:42;23.27;;;21.58;;
17566;SDS011;8901;52.088;5.084;2023-06-10T03:10:27;23.60;;;21.90;;
17566;SDS011;8901;52.088;5.084;2023-06-10T03:16:11;23.00;;;21.40;;
17566;SDS011;8901;52.088;5.084;2023-06-10T03:21:36;24.83;;;22.48;;
17566;SDS011;8901;52.088;5.084;2023-06-10T03:32:53;24.92;;;22.90;;
17566;SDS011;8901;52.088;5.084;2023-06-10T03:35:20;24.77;;;22.88;;
17566;SDS011;8901;52.088;5.084;2023-06-10T03:43:31;24.88;;;23.00;;
17566;SDS011;8901;52.088;5.084;2023-06-10T03:45:58;24.80;;;23.10;;
17566;SDS011;8901;52.088;5.084;2023-06-10T03:48:27;23.67;;;22.05;;
17566;SDS011;8901;52.088;5.084;2023-06-10T03:50:56;25.55;;;23.63;;
17566;SDS011;8901;52.088;5.084;2023-06-10T03:53:23;24.92;;;22.92;;
17566;SDS011;8901;52.088;5.084;2023-06-10T03:55:50;24.45;;;22.42;;
17566;SDS011;8901;52.088;5.084;2023-06-10T03:58:24;24.10;;;22.50;;
17566;SDS011;8901;52.088;5.084;2023-06-10T04:00:52;24.70;;;23.00;;
17566;SDS011;8901;52.088;5.084;2023-06-10T04:03:20;24.98;;;23.13;;
17566;SDS011;8901;52.088;5.084;2023-06-10T04:05:49;24.40;;;22.50;;
17566;SDS011;8901;52.088;5.084;2023-06-10T04:08:17;24.85;;;23.00;;
17566;SDS011;8901;52.088;5.084;2023-06-10T04:10:45;25.65;;;23.85;;
17566;SDS011;8901;52.088;5.084;2023-06-10T04:13:14;25.02;;;23.33;;
17566;SDS011;8901;52.088;5.084;2023-06-10T04:15:41;23.33;;;21.73;;
17566;SDS011;8901;52.088;5.084;2023-06-10T04:18:08;25.33;;;23.42;;
17566;SDS011;8901;52.088;5.084;2023-06-10T04:20:35;24.52;;;22.77;;
17566;SDS011;8901;52.088;5.084;2023-06-10T04:23:04;25.15;;;22.88;;
17566;SDS011;8901;52.088;5.084;2023-06-10T04:25:31;23.55;;;21.83;;
17566;SDS011;8901;52.088;5.084;2023-06-10T04:27:58;24.65;;;22.65;;
17566;SDS011;8901;52.088;5.084;2023-06-10T04:30:25;23.02;;;21.42;;
17566;SDS011;8901;52.088;5.084;2023-06-10T04:32:53;23.98;;;22.05;;
17566;SDS011;8901;52.088;5.084;2023-06-10T04:35:20;24.42;;;22.52;;
17566;SDS011;8901;52.088;5.084;2023-06-10T04:37:47;22.70;;;20.92;;
17566;SDS011;8901;52.088;5.084;2023-06-10T04:40:16;23.75;;;22.05;;
17566;SDS011;8901;52.088;5.084;2023-06-10T04:42:43;22.70;;;21.15;;
17566;SDS011;8901;52.088;5.084;2023-06-10T04:45:10;24.35;;;22.27;;
17566;SDS011;8901;52.088;5.084;2023-06-10T04:47:38;21.60;;;19.98;;
17566;SDS011;8901;52.088;5.084;2023-06-10T04:50:05;23.35;;;21.75;;
17566;SDS011;8901;52.088;5.084;2023-06-10T04:52:33;22.45;;;20.85;;
17566;SDS011;8901;52.088;5.084;2023-06-10T04:55:00;23.70;;;21.88;;
17566;SDS011;8901;52.088;5.084;2023-06-10T04:57:29;24.05;;;22.05;;
17566;SDS011;8901;52.088;5.084;2023-06-10T04:59:56;22.52;;;20.73;;
17566;SDS011;8901;52.088;5.084;2023-06-10T05:02:23;22.70;;;20.98;;
17566;SDS011;8901;52.088;5.084;2023-06-10T05:04:50;22.05;;;20.55;;
17566;SDS011;8901;52.088;5.084;2023-06-10T05:07:18;21.75;;;20.35;;
17566;SDS011;8901;52.088;5.084;2023-06-10T05:09:45;22.70;;;20.75;;
17566;SDS011;8901;52.088;5.084;2023-06-10T05:12:12;23.35;;;21.75;;
17566;SDS011;8901;52.088;5.084;2023-06-10T05:14:41;23.73;;;22.00;;
17566;SDS011;8901;52.088;5.084;2023-06-10T05:17:09;23.30;;;21.75;;
17566;SDS011;8901;52.088;5.084;2023-06-10T05:19:37;22.67;;;21.08;;
17566;SDS011;8901;52.088;5.084;2023-06-10T05:22:06;23.55;;;21.85;;
17566;SDS011;8901;52.088;5.084;2023-06-10T05:24:33;22.88;;;21.23;;
17566;SDS011;8901;52.088;5.084;2023-06-10T05:27:01;22.75;;;20.70;;
17566;SDS011;8901;52.088;5.084;2023-06-10T05:29:28;23.23;;;21.50;;
17566;SDS011;8901;52.088;5.084;2023-06-10T05:31:57;23.67;;;21.92;;
17566;SDS011;8901;52.088;5.084;2023-06-10T05:34:28;23.85;;;22.02;;
17566;SDS011;8901;52.088;5.084;2023-06-10T05:36:55;23.00;;;21.38;;
17566;SDS011;8901;52.088;5.084;2023-06-10T05:39:22;23.70;;;22.02;;
17566;SDS011;8901;52.088;5.084;2023-06-10T05:41:52;21.65;;;20.20;;
17566;SDS011;8901;52.088;5.084;2023-06-10T05:44:22;23.15;;;21.30;;
17566;SDS011;8901;52.088;5.084;2023-06-10T05:46:50;22.58;;;20.98;;
17566;SDS011;8901;52.088;5.084;2023-06-10T05:49:25;21.88;;;20.48;;
17566;SDS011;8901;52.088;5.084;2023-06-10T05:51:52;23.83;;;21.85;;
17566;SDS011;8901;52.088;5.084;2023-06-10T05:54:21;23.25;;;21.75;;
17566;SDS011;8901;52.088;5.084;2023-06-10T05:56:51;22.92;;;21.33;;
17566;SDS011;8901;52.088;5.084;2023-06-10T05:59:19;21.95;;;19.88;;
17566;SDS011;8901;52.088;5.084;2023-06-10T06:01:47;23.85;;;22.17;;
17566;SDS011;8901;52.088;5.084;2023-06-10T06:04:15;21.77;;;20.27;;
17566;SDS011;8901;52.088;5.084;2023-06-10T06:06:44;22.33;;;20.63;;
17566;SDS011;8901;52.088;5.084;2023-06-10T06:09:14;21.83;;;20.30;;
17566;SDS011;8901;52.088;5.084;2023-06-10T06:11:45;21.75;;;20.10;;
17566;SDS011;8901;52.088;5.084;2023-06-10T06:14:12;23.83;;;21.58;;
17566;SDS011;8901;52.088;5.084;2023-06-10T06:16:40;23.15;;;21.35;;
17566;SDS011;8901;52.088;5.084;2023-06-10T06:19:07;23.05;;;21.45;;
17566;SDS011;8901;52.088;5.084;2023-06-10T06:21:36;23.88;;;22.27;;
17566;SDS011;8901;52.088;5.084;2023-06-10T06:24:07;22.88;;;21.20;;
17566;SDS011;8901;52.088;5.084;2023-06-10T06:26:34;23.05;;;21.45;;
17566;SDS011;8901;52.088;5.084;2023-06-10T06:29:02;23.48;;;21.85;;
17566;SDS011;8901;52.088;5.084;2023-06-10T06:31:30;21.75;;;20.27;;
17566;SDS011;8901;52.088;5.084;2023-06-10T06:33:57;22.52;;;20.85;;
17566;SDS011;8901;52.088;5.084;2023-06-10T06:36:31;21.80;;;20.17;;
17566;SDS011;8901;52.088;5.084;2023-06-10T06:39:00;22.63;;;20.58;;
17566;SDS011;8901;52.088;5.084;2023-06-10T06:41:31;22.25;;;20.75;;
17566;SDS011;8901;52.088;5.084;2023-06-10T06:43:59;22.35;;;20.73;;
17566;SDS011;8901;52.088;5.084;2023-06-10T06:46:29;22.13;;;20.27;;
17566;SDS011;8901;52.088;5.084;2023-06-10T06:48:57;21.95;;;20.08;;
17566;SDS011;8901;52.088;5.084;2023-06-10T06:51:27;20.42;;;19.00;;
17566;SDS011;8901;52.088;5.084;2023-06-10T06:53:54;21.80;;;20.30;;
17566;SDS011;8901;52.088;5.084;2023-06-10T06:56:23;20.95;;;19.45;;
17566;SDS011;8901;52.088;5.084;2023-06-10T06:58:53;21.30;;;19.90;;
17566;SDS011;8901;52.088;5.084;2023-06-10T07:01:21;22.92;;;21.15;;
17566;SDS011;8901;52.088;5.084;2023-06-10T07:03:48;23.83;;;22.17;;
17566;SDS011;8901;52.088;5.084;2023-06-10T07:06:16;23.77;;;22.02;;
17566;SDS011;8901;52.088;5.084;2023-06-10T07:08:44;21.40;;;19.85;;
17566;SDS011;8901;52.088;5.084;2023-06-10T07:11:11;22.40;;;20.80;;
17566;SDS011;8901;52.088;5.084;2023-06-10T07:13:39;23.33;;;21.10;;
17566;SDS011;8901;52.088;5.084;2023-06-10T07:16:08;23.08;;;21.40;;
17566;SDS011;8901;52.088;5.084;2023-06-10T07:18:35;22.73;;;20.92;;
17566;SDS011;8901;52.088;5.084;2023-06-10T07:21:08;21.58;;;20.10;;
17566;SDS011;8901;52.088;5.084;2023-06-10T07:23:37;23.63;;;21.88;;
17566;SDS011;8901;52.088;5.084;2023-06-10T07:26:04;22.70;;;21.10;;
17566;SDS011;8901;52.088;5.084;2023-06-10T07:28:32;23.02;;;21.40;;
17566;SDS011;8901;52.088;5.084;2023-06-10T07:31:02;23.95;;;22.08;;
17566;SDS011;8901;52.088;5.084;2023-06-10T07:33:31;22.83;;;21.23;;
17566;SDS011;8901;52.088;5.084;2023-06-10T07:35:58;22.73;;;21.00;;
17566;SDS011;8901;52.088;5.084;2023-06-10T07:38:26;22.08;;;20.58;;
17566;SDS011;8901;52.088;5.084;2023-06-10T07:40:53;23.08;;;21.35;;
17566;SDS011;8901;52.088;5.084;2023-06-10T07:43:22;23.38;;;21.83;;
17566;SDS011;8901;52.088;5.084;2023-06-10T07:45:49;22.40;;;20.90;;
17566;SDS011;8901;52.088;5.084;2023-06-10T07:48:17;23.52;;;21.92;;
17566;SDS011;8901;52.088;5.084;2023-06-10T07:50:45;23.65;;;21.95;;
17566;SDS011;8901;52.088;5.084;2023-06-10T07:53:12;24.50;;;22.42;;
17566;SDS011;8901;52.088;5.084;2023-06-10T07:55:40;22.55;;;20.92;;
17566;SDS011;8901;52.088;5.084;2023-06-10T07:58:07;24.00;;;22.23;;
17566;SDS011;8901;52.088;5.084;2023-06-10T08:00:35;23.10;;;21.08;;
17566;SDS011;8901;52.088;5.084;2023-06-10T08:03:02;22.10;;;20.30;;
17566;SDS011;8901;52.088;5.084;2023-06-10T08:05:29;21.63;;;19.35;;
17566;SDS011;8901;52.088;5.084;2023-06-10T08:07:58;19.55;;;17.88;;
17566;SDS011;8901;52.088;5.084;2023-06-10T08:10:25;21.83;;;20.02;;
17566;SDS011;8901;52.088;5.084;2023-06-10T08:12:52;22.75;;;20.92;;
17566;SDS011;8901;52.088;5.084;2023-06-10T08:15:20;22.48;;;20.88;;
17566;SDS011;8901;52.088;5.084;2023-06-10T08:17:47;20.92;;;19.20;;
17566;SDS011;8901;52.088;5.084;2023-06-10T08:20:14;22.42;;;20.60;;
17566;SDS011;8901;52.088;5.084;2023-06-10T08:22:41;23.58;;;21.90;;
17566;SDS011;8901;52.088;5.084;2023-06-10T08:25:10;22.55;;;20.98;;
17566;SDS011;8901;52.088;5.084;2023-06-10T08:27:37;24.63;;;22.65;;
17566;SDS011;8901;52.088;5.084;2023-06-10T08:30:05;25.08;;;23.20;;
17566;SDS011;8901;52.088;5.084;2023-06-10T08:32:33;25.02;;;23.30;;
17566;SDS011;8901;52.088;5.084;2023-06-10T08:35:00;26.13;;;24.13;;
17566;SDS011;8901;52.088;5.084;2023-06-10T08:37:27;25.80;;;23.80;;
17566;SDS011;8901;52.088;5.084;2023-06-10T08:39:54;23.20;;;21.02;;
17566;SDS011;8901;52.088;5.084;2023-06-10T08:42:24;24.30;;;22.40;;
17566;SDS011;8901;52.088;5.084;2023-06-10T08:44:53;23.50;;;21.70;;
17566;SDS011;8901;52.088;5.084;2023-06-10T08:47:22;21.67;;;20.08;;
17566;SDS011;8901;52.088;5.084;2023-06-10T08:49:49;21.98;;;20.00;;
17566;SDS011;8901;52.088;5.084;2023-06-10T08:52:18;23.15;;;21.48;;
17566;SDS011;8901;52.088;5.084;2023-06-10T08:54:47;24.63;;;22.88;;
17566;SDS011;8901;52.088;5.084;2023-06-10T08:57:15;24.00;;;22.30;;
17566;SDS011;8901;52.088;5.084;2023-06-10T08:59:46;25.13;;;23.52;;
17566;SDS011;8901;52.088;5.084;2023-06-10T09:02:14;25.52;;;23.60;;
17566;SDS011;8901;52.088;5.084;2023-06-10T09:04:44;25.60;;;23.80;;
17566;SDS011;8901;52.088;5.084;2023-06-10T09:07:13;24.90;;;23.10;;
17566;SDS011;8901;52.088;5.084;2023-06-10T09:09:41;25.08;;;22.88;;
17566;SDS011;8901;52.088;5.084;2023-06-10T09:12:09;24.75;;;23.02;;
17566;SDS011;8901;52.088;5.084;2023-06-10T09:14:36;25.17;;;23.58;;
17566;SDS011;8901;52.088;5.084;2023-06-10T09:17:05;25.20;;;23.30;;
17566;SDS011;8901;52.088;5.084;2023-06-10T09:19:32;24.67;;;22.92;;
17566;SDS011;8901;52.088;5.084;2023-06-10T09:22:00;25.50;;;23.48;;
17566;SDS011;8901;52.088;5.084;2023-06-10T09:24:27;23.27;;;21.27;;
17566;SDS011;8901;52.088;5.084;2023-06-10T09:27:01;23.25;;;21.63;;
17566;SDS011;8901;52.088;5.084;2023-06-10T09:29:28;25.95;;;23.92;;
17566;SDS011;8901;52.088;5.084;2023-06-10T09:31:56;23.35;;;21.40;;
17566;SDS011;8901;52.088;5.084;2023-06-10T09:34:25;24.75;;;22.58;;
17566;SDS011;8901;52.088;5.084;2023-06-10T09:36:53;24.25;;;22.42;;
17566;SDS011;8901;52.088;5.084;2023-06-10T09:39:20;24.83;;;23.13;;
17566;SDS011;8901;52.088;5.084;2023-06-10T09:41:48;23.95;;;22.15;;
17566;SDS011;8901;52.088;5.084;2023-06-10T09:44:15;24.83;;;23.10;;
17566;SDS011;8901;52.088;5.084;2023-06-10T09:46:45;26.42;;;23.95;;
17566;SDS011;8901;52.088;5.084;2023-06-10T09:49:12;26.65;;;24.30;;
17566;SDS011;8901;52.088;5.084;2023-06-10T09:51:49;26.17;;;24.10;;
17566;SDS011;8901;52.088;5.084;2023-06-10T09:54:18;26.98;;;24.52;;
17566;SDS011;8901;52.088;5.084;2023-06-10T09:56:46;25.35;;;23.00;;
17566;SDS011;8901;52.088;5.084;2023-06-10T09:59:14;26.90;;;22.70;;
17566;SDS011;8901;52.088;5.084;2023-06-10T10:01:41;24.42;;;22.30;;
17566;SDS011;8901;52.088;5.084;2023-06-10T10:04:08;23.50;;;21.65;;
17566;SDS011;8901;52.088;5.084;2023-06-10T10:06:36;24.00;;;22.30;;
17566;SDS011;8901;52.088;5.084;2023-06-10T10:09:05;23.15;;;21.55;;
17566;SDS011;8901;52.088;5.084;2023-06-10T10:11:33;23.52;;;21.42;;
17566;SDS011;8901;52.088;5.084;2023-06-10T10:14:01;23.42;;;21.77;;
17566;SDS011;8901;52.088;5.084;2023-06-10T10:16:33;24.02;;;22.38;;
17566;SDS011;8901;52.088;5.084;2023-06-10T10:19:04;23.20;;;21.55;;
17566;SDS011;8901;52.088;5.084;2023-06-10T10:21:35;24.70;;;22.80;;
17566;SDS011;8901;52.088;5.084;2023-06-10T10:24:07;24.98;;;23.23;;
17566;SDS011;8901;52.088;5.084;2023-06-10T10:26:36;23.05;;;21.55;;
17566;SDS011;8901;52.088;5.084;2023-06-10T10:29:07;24.33;;;22.52;;
17566;SDS011;8901;52.088;5.084;2023-06-10T10:31:37;23.58;;;21.95;;
17566;SDS011;8901;52.088;5.084;2023-06-10T10:34:05;23.75;;;21.95;;
17566;SDS011;8901;52.088;5.084;2023-06-10T10:36:34;24.60;;;22.90;;
17566;SDS011;8901;52.088;5.084;2023-06-10T10:39:02;24.75;;;23.15;;
17566;SDS011;8901;52.088;5.084;2023-06-10T10:41:31;24.33;;;22.60;;
17566;SDS011;8901;52.088;5.084;2023-06-10T10:44:00;23.75;;;21.92;;
17566;SDS011;8901;52.088;5.084;2023-06-10T10:46:30;24.27;;;22.63;;
17566;SDS011;8901;52.088;5.084;2023-06-10T10:48:57;25.48;;;23.58;;
17566;SDS011;8901;52.088;5.084;2023-06-10T10:51:25;23.50;;;21.90;;
17566;SDS011;8901;52.088;5.084;2023-06-10T10:54:11;22.92;;;21.27;;
17566;SDS011;8901;52.088;5.084;2023-06-10T10:56:40;24.25;;;22.70;;
17566;SDS011;8901;52.088;5.084;2023-06-10T10:59:35;23.98;;;22.33;;
17566;SDS011;8901;52.088;5.084;2023-06-10T11:02:09;25.05;;;23.27;;
17566;SDS011;8901;52.088;5.084;2023-06-10T11:04:37;25.13;;;23.40;;
17566;SDS011;8901;52.088;5.084;2023-06-10T11:07:05;25.15;;;23.35;;
17566;SDS011;8901;52.088;5.084;2023-06-10T11:09:37;24.63;;;23.02;;
17566;SDS011;8901;52.088;5.084;2023-06-10T11:12:06;25.00;;;23.35;;
17566;SDS011;8901;52.088;5.084;2023-06-10T11:14:34;23.52;;;22.02;;
17566;SDS011;8901;52.088;5.084;2023-06-10T11:17:02;23.20;;;21.60;;
17566;SDS011;8901;52.088;5.084;2023-06-10T11:19:44;25.35;;;23.33;;
17566;SDS011;8901;52.088;5.084;2023-06-10T11:22:15;24.33;;;22.55;;
17566;SDS011;8901;52.088;5.084;2023-06-10T11:24:47;25.15;;;23.45;;
17566;SDS011;8901;52.088;5.084;2023-06-10T11:27:16;25.38;;;23.77;;
17566;SDS011;8901;52.088;5.084;2023-06-10T11:29:57;24.45;;;22.83;;
17566;SDS011;8901;52.088;5.084;2023-06-10T11:32:24;24.40;;;22.73;;
17566;SDS011;8901;52.088;5.084;2023-06-10T11:34:55;25.13;;;23.23;;
17566;SDS011;8901;52.088;5.084;2023-06-10T11:37:23;23.55;;;21.90;;
17566;SDS011;8901;52.088;5.084;2023-06-10T11:39:51;24.70;;;23.00;;
17566;SDS011;8901;52.088;5.084;2023-06-10T11:42:20;24.77;;;23.02;;
17566;SDS011;8901;52.088;5.084;2023-06-10T11:44:48;23.83;;;22.00;;
17566;SDS011;8901;52.088;5.084;2023-06-10T11:47:16;24.42;;;22.25;;
17566;SDS011;8901;52.088;5.084;2023-06-10T11:49:43;23.23;;;21.52;;
17566;SDS011;8901;52.088;5.084;2023-06-10T11:52:10;23.73;;;22.13;;
17566;SDS011;8901;52.088;5.084;2023-06-10T11:54:38;24.50;;;22.63;;
17566;SDS011;8901;52.088;5.084;2023-06-10T11:57:05;24.20;;;22.63;;
17566;SDS011;8901;52.088;5.084;2023-06-10T11:59:35;25.25;;;23.52;;
17566;SDS011;8901;52.088;5.084;2023-06-10T12:02:02;24.95;;;23.35;;
17566;SDS011;8901;52.088;5.084;2023-06-10T12:04:29;25.95;;;24.25;;
17566;SDS011;8901;52.088;5.084;2023-06-10T12:06:56;25.17;;;23.52;;
17566;SDS011;8901;52.088;5.084;2023-06-10T12:09:24;24.40;;;22.70;;
17566;SDS011;8901;52.088;5.084;2023-06-10T12:11:52;23.75;;;22.05;;
17566;SDS011;8901;52.088;5.084;2023-06-10T12:17:07;26.15;;;24.05;;
17566;SDS011;8901;52.088;5.084;2023-06-10T12:19:37;24.90;;;23.10;;
17566;SDS011;8901;52.088;5.084;2023-06-10T12:22:05;24.50;;;22.70;;
17566;SDS011;8901;52.088;5.084;2023-06-10T12:24:32;24.30;;;22.55;;
17566;SDS011;8901;52.088;5.084;2023-06-10T12:27:00;24.90;;;23.30;;
17566;SDS011;8901;52.088;5.084;2023-06-10T12:29:27;25.58;;;23.52;;
17566;SDS011;8901;52.088;5.084;2023-06-10T12:31:58;25.10;;;23.10;;
17566;SDS011;8901;52.088;5.084;2023-06-10T12:34:31;24.30;;;22.70;;
17566;SDS011;8901;52.088;5.084;2023-06-10T12:36:58;25.08;;;23.27;;
17566;SDS011;8901;52.088;5.084;2023-06-10T12:39:26;24.80;;;23.20;;
17566;SDS011;8901;52.088;5.084;2023-06-10T12:41:53;25.50;;;23.75;;
17566;SDS011;8901;52.088;5.084;2023-06-10T12:47:46;24.27;;;22.75;;
17566;SDS011;8901;52.088;5.084;2023-06-10T12:50:27;23.30;;;21.85;;
17566;SDS011;8901;52.088;5.084;2023-06-10T13:04:22;24.00;;;22.50;;
17566;SDS011;8901;52.088;5.084;2023-06-10T13:06:54;24.10;;;22.50;;
17566;SDS011;8901;52.088;5.084;2023-06-10T13:09:22;23.58;;;21.95;;
17566;SDS011;8901;52.088;5.084;2023-06-10T13:11:50;24.55;;;23.02;;
17566;SDS011;8901;52.088;5.084;2023-06-10T13:14:20;24.50;;;22.88;;
17566;SDS011;8901;52.088;5.084;2023-06-10T13:16:47;23.50;;;22.00;;
17566;SDS011;8901;52.088;5.084;2023-06-10T13:19:33;24.90;;;23.30;;
17566;SDS011;8901;52.088;5.084;2023-06-10T13:22:08;24.95;;;23.35;;
17566;SDS011;8901;52.088;5.084;2023-06-10T13:24:43;24.63;;;22.92;;
17566;SDS011;8901;52.088;5.084;2023-06-10T13:27:11;23.63;;;22.13;;
17566;SDS011;8901;52.088;5.084;2023-06-10T13:29:49;23.80;;;22.20;;
17566;SDS011;8901;52.088;5.084;2023-06-10T13:32:23;24.15;;;22.45;;
17566;SDS011;8901;52.088;5.084;2023-06-10T13:34:54;24.95;;;23.25;;
17566;SDS011;8901;52.088;5.084;2023-06-10T13:37:35;24.08;;;22.48;;
17566;SDS011;8901;52.088;5.084;2023-06-10T13:40:03;23.80;;;22.25;;
17566;SDS011;8901;52.088;5.084;2023-06-10T13:42:32;25.48;;;23.77;;
17566;SDS011;8901;52.088;5.084;2023-06-10T13:47:46;25.83;;;24.30;;
17566;SDS011;8901;52.088;5.084;2023-06-10T13:50:14;23.88;;;22.38;;
17566;SDS011;8901;52.088;5.084;2023-06-10T13:52:49;24.90;;;23.27;;
17566;SDS011;8901;52.088;5.084;2023-06-10T13:55:20;24.65;;;23.15;;
17566;SDS011;8901;52.088;5.084;2023-06-10T13:57:50;23.52;;;21.83;;
17566;SDS011;8901;52.088;5.084;2023-06-10T14:00:20;24.33;;;22.63;;
17566;SDS011;8901;52.088;5.084;2023-06-10T14:02:49;25.13;;;23.50;;
17566;SDS011;8901;52.088;5.084;2023-06-10T14:05:19;24.38;;;22.77;;
17566;SDS011;8901;52.088;5.084;2023-06-10T14:10:20;24.02;;;22.52;;
17566;SDS011;8901;52.088;5.084;2023-06-10T14:12:50;24.30;;;22.65;;
17566;SDS011;8901;52.088;5.084;2023-06-10T14:15:18;24.98;;;23.25;;
17566;SDS011;8901;52.088;5.084;2023-06-10T14:17:46;24.00;;;22.30;;
17566;SDS011;8901;52.088;5.084;2023-06-10T14:20:14;23.60;;;22.10;;
17566;SDS011;8901;52.088;5.084;2023-06-10T14:22:42;23.10;;;21.60;;
17566;SDS011;8901;52.088;5.084;2023-06-10T14:25:11;24.83;;;22.98;;
17566;SDS011;8901;52.088;5.084;2023-06-10T14:27:43;23.73;;;22.13;;
17566;SDS011;8901;52.088;5.084;2023-06-10T14:30:20;22.40;;;21.05;;
17566;SDS011;8901;52.088;5.084;2023-06-10T14:35:24;24.05;;;22.55;;
17566;SDS011;8901;52.088;5.084;2023-06-10T14:37:58;26.05;;;24.15;;
17566;SDS011;8901;52.088;5.084;2023-06-10T14:40:26;25.73;;;23.58;;
17566;SDS011;8901;52.088;5.084;2023-06-10T14:43:01;23.83;;;22.08;;
17566;SDS011;8901;52.088;5.084;2023-06-10T14:45:35;25.63;;;23.50;;
17566;SDS011;8901;52.088;5.084;2023-06-10T14:48:03;24.98;;;23.10;;
17566;SDS011;8901;52.088;5.084;2023-06-10T14:50:32;24.50;;;23.00;;
17566;SDS011;8901;52.088;5.084;2023-06-10T14:52:59;24.45;;;22.83;;
17566;SDS011;8901;52.088;5.084;2023-06-10T14:55:26;24.10;;;22.40;;
17566;SDS011;8901;52.088;5.084;2023-06-10T14:57:54;24.98;;;23.38;;
17566;SDS011;8901;52.088;5.084;2023-06-10T15:00:25;23.58;;;21.98;;
17566;SDS011;8901;52.088;5.084;2023-06-10T15:02:52;24.83;;;23.08;;
17566;SDS011;8901;52.088;5.084;2023-06-10T15:05:22;25.23;;;23.70;;
17566;SDS011;8901;52.088;5.084;2023-06-10T15:07:50;25.05;;;23.40;;
17566;SDS011;8901;52.088;5.084;2023-06-10T15:10:17;24.52;;;23.02;;
17566;SDS011;8901;52.088;5.084;2023-06-10T15:12:46;23.77;;;22.08;;
17566;SDS011;8901;52.088;5.084;2023-06-10T15:15:20;24.70;;;23.00;;
17566;SDS011;8901;52.088;5.084;2023-06-10T15:17:49;23.17;;;21.63;;
17566;SDS011;8901;52.088;5.084;2023-06-10T15:20:16;25.67;;;23.92;;
17566;SDS011;8901;52.088;5.084;2023-06-10T15:22:43;24.25;;;22.65;;
17566;SDS011;8901;52.088;5.084;2023-06-10T15:25:11;24.20;;;22.15;;
17566;SDS011;8901;52.088;5.084;2023-06-10T15:27:38;24.83;;;23.02;;
17566;SDS011;8901;52.088;5.084;2023-06-10T15:30:06;25.13;;;23.48;;
17566;SDS011;8901;52.088;5.084;2023-06-10T15:35:59;25.23;;;23.33;;
17566;SDS011;8901;52.088;5.084;2023-06-10T15:38:27;25.42;;;23.85;;
17566;SDS011;8901;52.088;5.084;2023-06-10T15:40:54;26.23;;;24.50;;